Time;durP1;ratioP1;P1;durP2;ratioP2;P2;SDS_P1;SDS_P2;PMS_P1;PMS_P2;Temp;Humidity;BMP_temperature;BMP_pressure;BME280_temperature;BME280_humidity;BME280_pressure;Samples;Min_cycle;Max_cycle;Signal;HPM_P1;HPM_P2
2021/12/12 00:01:09;;;;;;;43.05;26.23;;;;;;;;;;6246359;28;20136;-64
2021/12/12 00:04:15;;;;;;;42.80;26.40;;;;;;;;;;6260713;28;20088;-64
2021/12/12 00:07:21;;;;;;;43.45;28.27;;;;;;;;;;6253591;28;20067;-64
2021/12/12 00:10:28;;;;;;;42.53;28.02;;;;;;;;;;6253083;28;20055;-64
2021/12/12 00:13:33;;;;;;;46.15;27.70;;;;;;;;;;6263632;28;20127;-64
2021/12/12 00:16:36;;;;;;;46.22;27.77;;;;;;;;;;6246455;28;20040;-64
2021/12/12 00:19:38;;;;;;;44.92;28.30;;;;;;;;;;6261284;28;20136;-64
2021/12/12 00:22:41;;;;;;;46.08;28.15;;;;;;;;;;6248983;28;20045;-64
2021/12/12 00:25:46;;;;;;;47.28;27.92;;;;;;;;;;6247787;28;20045;-64
2021/12/12 00:28:47;;;;;;;42.65;27.17;;;;;;;;;;6264187;28;20083;-64
2021/12/12 00:31:51;;;;;;;45.10;27.00;;;;;;;;;;6248484;28;20149;-64
2021/12/12 00:34:58;;;;;;;48.85;28.15;;;;;;;;;;6261426;28;20098;-64
2021/12/12 00:38:05;;;;;;;49.10;28.17;;;;;;;;;;6251943;28;20051;-64
2021/12/12 00:41:10;;;;;;;48.38;28.05;;;;;;;;;;6255577;28;20194;-65
2021/12/12 00:44:14;;;;;;;47.20;29.13;;;;;;;;;;6265821;28;20132;-64
2021/12/12 00:47:16;;;;;;;44.20;27.85;;;;;;;;;;6244250;28;20040;-64
2021/12/12 00:50:21;;;;;;;43.95;27.30;;;;;;;;;;6255558;28;20124;-64
2021/12/12 00:53:25;;;;;;;46.22;28.85;;;;;;;;;;6263024;28;20049;-64
2021/12/12 00:56:27;;;;;;;45.35;28.27;;;;;;;;;;6255039;28;20063;-64
2021/12/12 00:59:29;;;;;;;42.83;26.60;;;;;;;;;;6263342;28;21202;-64
2021/12/12 01:02:31;;;;;;;42.55;27.23;;;;;;;;;;6244857;28;20060;-64
2021/12/12 01:05:33;;;;;;;43.20;27.58;;;;;;;;;;6244078;28;20195;-64
2021/12/12 01:08:37;;;;;;;47.88;27.25;;;;;;;;;;6255473;28;20500;-64
2021/12/12 01:11:41;;;;;;;46.67;29.30;;;;;;;;;;6252687;28;20493;-64
2021/12/12 01:14:58;;;;;;;47.80;30.23;;;;;;;;;;6264810;28;20056;-64
2021/12/12 01:18:10;;;;;;;48.53;28.48;;;;;;;;;;6247028;28;20041;-68
2021/12/12 01:21:16;;;;;;;111.35;54.42;;;;;;;;;;6248319;28;20128;-65
2021/12/12 01:24:24;;;;;;;68.15;37.30;;;;;;;;;;6265103;28;20108;-64
2021/12/12 01:27:25;;;;;;;68.10;37.15;;;;;;;;;;6256366;28;20044;-66
2021/12/12 01:30:28;;;;;;;64.90;36.72;;;;;;;;;;6257152;28;20069;-65
2021/12/12 01:33:34;;;;;;;102.85;52.20;;;;;;;;;;6262318;28;20126;-65
2021/12/12 01:36:47;;;;;;;70.07;39.67;;;;;;;;;;6255764;28;20058;-64
2021/12/12 01:39:53;;;;;;;40.28;26.25;;;;;;;;;;6260990;28;20053;-64
2021/12/12 01:42:59;;;;;;;43.25;26.10;;;;;;;;;;6260518;28;20199;-65
2021/12/12 01:46:04;;;;;;;42.53;26.55;;;;;;;;;;6262681;28;20503;-64
2021/12/12 01:49:09;;;;;;;42.85;26.25;;;;;;;;;;6267399;28;20100;-65
2021/12/12 01:52:17;;;;;;;40.92;27.05;;;;;;;;;;6259934;28;20556;-64
2021/12/12 01:55:25;;;;;;;44.63;27.00;;;;;;;;;;6258429;28;20159;-64
2021/12/12 01:58:29;;;;;;;47.83;27.42;;;;;;;;;;6265547;28;20045;-63
2021/12/12 02:01:36;;;;;;;42.60;27.80;;;;;;;;;;6252786;28;20048;-64
2021/12/12 02:04:42;;;;;;;43.05;26.80;;;;;;;;;;6262202;28;20112;-64
2021/12/12 02:07:47;;;;;;;40.65;26.60;;;;;;;;;;6250827;28;20086;-64
2021/12/12 02:10:54;;;;;;;45.13;28.38;;;;;;;;;;6252980;28;20053;-64
2021/12/12 02:13:58;;;;;;;39.20;25.00;;;;;;;;;;6255382;28;20598;-64
2021/12/12 02:17:02;;;;;;;44.88;27.42;;;;;;;;;;6247410;28;20498;-64
2021/12/12 02:20:15;;;;;;;43.33;26.98;;;;;;;;;;6256543;28;20124;-64
2021/12/12 02:23:27;;;;;;;44.25;26.55;;;;;;;;;;6261072;28;20087;-63
2021/12/12 02:36:29;;;;;;;42.00;26.85;;;;;;;;;;6257256;28;20060;-64
2021/12/12 02:39:32;;;;;;;45.27;27.63;;;;;;;;;;6267177;28;20508;-63
2021/12/12 02:42:34;;;;;;;44.23;26.53;;;;;;;;;;6258599;28;20560;-64
2021/12/12 02:45:36;;;;;;;41.78;26.23;;;;;;;;;;6257312;28;20790;-64
2021/12/12 02:48:41;;;;;;;44.63;26.13;;;;;;;;;;6262436;28;20056;-64
2021/12/12 02:51:43;;;;;;;44.78;26.38;;;;;;;;;;6258982;28;20056;-63
2021/12/12 02:54:47;;;;;;;47.15;27.95;;;;;;;;;;6266947;28;20049;-64
2021/12/12 02:57:49;;;;;;;41.88;26.08;;;;;;;;;;6259526;28;20160;-64
2021/12/12 03:00:58;;;;;;;39.75;24.95;;;;;;;;;;6256028;28;20599;-64
2021/12/12 03:04:00;;;;;;;41.47;26.38;;;;;;;;;;6254917;28;20048;-64
2021/12/12 03:07:02;;;;;;;43.25;27.48;;;;;;;;;;6258478;28;20512;-64
2021/12/12 03:10:09;;;;;;;42.03;27.20;;;;;;;;;;6265612;28;20053;-64
2021/12/12 03:13:11;;;;;;;48.83;28.42;;;;;;;;;;6263899;28;20076;-64
2021/12/12 03:16:13;;;;;;;40.17;26.83;;;;;;;;;;6254247;28;20049;-64
2021/12/12 03:19:19;;;;;;;42.85;26.73;;;;;;;;;;6261481;28;21766;-64
2021/12/12 03:22:21;;;;;;;44.53;26.05;;;;;;;;;;6252131;28;20053;-64
2021/12/12 03:25:25;;;;;;;43.35;26.33;;;;;;;;;;6256044;28;20434;-64
2021/12/12 03:28:30;;;;;;;37.90;25.65;;;;;;;;;;6263473;28;20055;-64
2021/12/12 03:31:35;;;;;;;38.70;26.08;;;;;;;;;;6246220;28;20796;-64
2021/12/12 03:34:40;;;;;;;44.13;26.50;;;;;;;;;;6265185;28;21506;-64
2021/12/12 03:37:42;;;;;;;39.45;25.92;;;;;;;;;;6254216;28;20068;-65
2021/12/12 03:40:46;;;;;;;46.67;26.98;;;;;;;;;;6260520;28;20053;-64
2021/12/12 03:43:51;;;;;;;40.38;26.27;;;;;;;;;;6267246;28;20045;-64
2021/12/12 03:46:59;;;;;;;37.88;25.50;;;;;;;;;;6255248;28;20131;-64
2021/12/12 03:50:04;;;;;;;39.25;25.92;;;;;;;;;;6264107;28;20131;-64
2021/12/12 03:53:06;;;;;;;43.40;26.45;;;;;;;;;;6259446;28;20496;-64
2021/12/12 03:56:12;;;;;;;44.67;27.45;;;;;;;;;;6258360;28;20131;-64
2021/12/12 03:59:14;;;;;;;44.97;27.17;;;;;;;;;;6270343;28;20103;-64
2021/12/12 04:02:17;;;;;;;48.83;27.55;;;;;;;;;;6249252;28;20072;-64
2021/12/12 04:05:19;;;;;;;44.15;28.98;;;;;;;;;;6255379;28;20052;-64
2021/12/12 04:08:25;;;;;;;45.15;27.40;;;;;;;;;;6260039;28;20045;-64
2021/12/12 04:11:31;;;;;;;41.75;26.95;;;;;;;;;;6256659;28;20105;-64
2021/12/12 04:14:33;;;;;;;44.97;26.63;;;;;;;;;;6264496;28;20048;-64
2021/12/12 04:17:34;;;;;;;41.92;27.05;;;;;;;;;;6248766;28;20043;-64
2021/12/12 04:20:38;;;;;;;42.25;26.88;;;;;;;;;;6252715;28;20812;-64
2021/12/12 04:23:40;;;;;;;42.80;27.25;;;;;;;;;;6263762;28;20128;-64
2021/12/12 04:26:44;;;;;;;40.97;26.67;;;;;;;;;;6255871;28;20443;-64
2021/12/12 04:29:49;;;;;;;44.22;27.58;;;;;;;;;;6268610;28;20136;-64
2021/12/12 04:32:52;;;;;;;46.08;27.10;;;;;;;;;;6250193;28;20504;-64
2021/12/12 04:35:53;;;;;;;43.45;26.50;;;;;;;;;;6251776;28;20852;-63
2021/12/12 04:39:00;;;;;;;44.65;27.98;;;;;;;;;;6276853;28;20540;-63
2021/12/12 04:42:08;;;;;;;40.53;26.88;;;;;;;;;;6247236;28;20161;-64
2021/12/12 04:45:18;;;;;;;44.03;26.65;;;;;;;;;;6261839;28;20076;-64
2021/12/12 04:51:46;;;;;;;39.03;26.38;;;;;;;;;;6253522;28;20052;-64
2021/12/12 04:54:54;;;;;;;42.63;26.67;;;;;;;;;;6261474;28;20045;-64
2021/12/12 04:58:05;;;;;;;42.53;28.42;;;;;;;;;;6217750;28;20776;-64
2021/12/12 05:01:12;;;;;;;42.72;28.75;;;;;;;;;;6244158;28;20507;-64
2021/12/12 05:04:19;;;;;;;48.97;29.77;;;;;;;;;;6260411;28;20658;-64
2021/12/12 05:07:22;;;;;;;43.13;26.98;;;;;;;;;;6256503;28;20047;-64
2021/12/12 05:10:28;;;;;;;44.15;27.00;;;;;;;;;;6257271;28;20121;-64
2021/12/12 05:13:37;;;;;;;42.92;26.88;;;;;;;;;;6262951;28;20168;-64
2021/12/12 05:16:43;;;;;;;44.40;27.58;;;;;;;;;;6248839;28;20517;-64
2021/12/12 05:19:47;;;;;;;43.28;27.08;;;;;;;;;;6259896;28;20045;-64
2021/12/12 05:22:51;;;;;;;46.13;27.98;;;;;;;;;;6251421;28;20036;-64
2021/12/12 05:25:58;;;;;;;46.42;27.73;;;;;;;;;;6254115;28;20630;-64
2021/12/12 05:29:05;;;;;;;43.83;27.20;;;;;;;;;;6261602;28;20075;-64
2021/12/12 05:32:09;;;;;;;44.33;27.60;;;;;;;;;;6247873;28;20067;-64
2021/12/12 05:35:19;;;;;;;47.42;28.08;;;;;;;;;;6254390;28;20129;-64
2021/12/12 05:38:22;;;;;;;44.03;27.30;;;;;;;;;;6259881;28;20102;-64
2021/12/12 05:41:24;;;;;;;46.73;27.40;;;;;;;;;;6252995;28;20484;-64
2021/12/12 05:44:29;;;;;;;44.80;27.27;;;;;;;;;;6263857;28;20250;-64
2021/12/12 05:47:30;;;;;;;46.65;27.50;;;;;;;;;;6245228;28;20049;-64
2021/12/12 05:50:32;;;;;;;40.30;26.65;;;;;;;;;;6251041;28;20037;-64
2021/12/12 05:53:34;;;;;;;39.53;26.08;;;;;;;;;;6265458;28;20047;-64
2021/12/12 05:56:38;;;;;;;41.50;26.05;;;;;;;;;;6254162;28;20045;-64
2021/12/12 05:59:41;;;;;;;41.08;26.13;;;;;;;;;;6261880;28;20424;-64
2021/12/12 06:02:43;;;;;;;42.65;24.45;;;;;;;;;;6246514;28;20102;-64
2021/12/12 06:05:45;;;;;;;40.90;24.65;;;;;;;;;;6250934;28;20133;-64
2021/12/12 06:08:47;;;;;;;38.55;24.88;;;;;;;;;;6261416;28;20051;-64
2021/12/12 06:11:51;;;;;;;40.42;24.35;;;;;;;;;;6252151;28;20057;-64
2021/12/12 06:14:54;;;;;;;43.42;25.70;;;;;;;;;;6262115;28;20057;-64
2021/12/12 06:17:56;;;;;;;40.67;24.30;;;;;;;;;;6220537;28;20099;-64
2021/12/12 06:20:58;;;;;;;38.72;24.15;;;;;;;;;;6225231;28;20091;-64
2021/12/12 06:24:00;;;;;;;39.25;23.88;;;;;;;;;;6242091;28;20053;-64
2021/12/12 06:27:06;;;;;;;36.97;23.55;;;;;;;;;;6247976;28;20049;-64
2021/12/12 06:30:14;;;;;;;33.00;21.77;;;;;;;;;;6255124;28;20551;-64
2021/12/12 06:33:16;;;;;;;34.13;22.95;;;;;;;;;;6226760;28;20195;-64
2021/12/12 06:36:18;;;;;;;35.55;22.30;;;;;;;;;;6225384;28;20042;-64
2021/12/12 06:39:20;;;;;;;31.67;21.77;;;;;;;;;;6236504;28;20045;-65
2021/12/12 06:42:22;;;;;;;38.33;22.77;;;;;;;;;;6228182;28;20095;-64
2021/12/12 06:45:26;;;;;;;36.15;22.30;;;;;;;;;;6227207;28;20136;-64
2021/12/12 06:48:28;;;;;;;33.03;21.33;;;;;;;;;;6242534;28;20188;-64
2021/12/12 06:51:33;;;;;;;32.10;21.25;;;;;;;;;;6251477;28;20049;-64
2021/12/12 06:54:35;;;;;;;33.20;20.92;;;;;;;;;;6261616;28;20048;-64
2021/12/12 06:57:38;;;;;;;30.85;19.95;;;;;;;;;;6251833;28;20420;-64
2021/12/12 07:00:45;;;;;;;32.13;20.13;;;;;;;;;;6249210;28;20471;-64
2021/12/12 07:03:48;;;;;;;31.73;19.60;;;;;;;;;;6250051;28;20041;-64
2021/12/12 07:06:53;;;;;;;31.92;20.23;;;;;;;;;;6251477;28;20368;-64
2021/12/12 07:09:55;;;;;;;32.83;19.15;;;;;;;;;;6264840;28;20045;-64
2021/12/12 07:12:57;;;;;;;29.27;18.75;;;;;;;;;;6254269;28;20128;-65
2021/12/12 07:16:02;;;;;;;26.77;17.83;;;;;;;;;;6251932;28;20516;-65
2021/12/12 07:19:05;;;;;;;31.58;19.35;;;;;;;;;;6264870;28;20067;-67
2021/12/12 07:22:08;;;;;;;30.92;19.88;;;;;;;;;;6254326;28;20504;-64
2021/12/12 07:25:10;;;;;;;28.55;18.50;;;;;;;;;;6260762;28;20124;-64
2021/12/12 07:28:12;;;;;;;31.25;17.85;;;;;;;;;;6261469;28;20041;-64
2021/12/12 07:31:18;;;;;;;27.98;19.45;;;;;;;;;;6251036;28;20132;-64
2021/12/12 07:34:20;;;;;;;30.27;19.13;;;;;;;;;;6263411;28;20131;-64
2021/12/12 07:37:22;;;;;;;27.42;18.02;;;;;;;;;;6248861;28;20254;-64
2021/12/12 07:40:25;;;;;;;27.90;17.98;;;;;;;;;;6256361;28;20190;-65
2021/12/12 07:43:27;;;;;;;28.17;18.95;;;;;;;;;;6264510;28;20106;-64
2021/12/12 07:46:31;;;;;;;28.38;18.80;;;;;;;;;;6249850;28;20049;-64
2021/12/12 07:49:35;;;;;;;25.42;17.73;;;;;;;;;;6261808;28;20037;-64
2021/12/12 07:52:37;;;;;;;28.45;17.70;;;;;;;;;;6250532;28;20096;-64
2021/12/12 07:55:39;;;;;;;22.88;15.85;;;;;;;;;;6253665;28;20043;-64
2021/12/12 07:58:41;;;;;;;22.27;15.90;;;;;;;;;;6265268;28;20380;-64
2021/12/12 08:01:46;;;;;;;24.90;16.60;;;;;;;;;;6247701;28;20041;-64
2021/12/12 08:04:48;;;;;;;25.30;16.40;;;;;;;;;;6261565;28;20045;-64
2021/12/12 08:07:50;;;;;;;21.63;15.45;;;;;;;;;;6247525;28;20065;-64
2021/12/12 08:10:52;;;;;;;20.98;14.77;;;;;;;;;;6253262;28;20053;-64
2021/12/12 08:13:53;;;;;;;20.67;15.15;;;;;;;;;;6265555;28;20509;-64
2021/12/12 08:16:57;;;;;;;19.83;14.50;;;;;;;;;;6248399;28;20109;-64
2021/12/12 08:20:00;;;;;;;25.43;15.63;;;;;;;;;;6248051;28;20048;-64
2021/12/12 08:23:02;;;;;;;22.35;15.02;;;;;;;;;;6253103;28;20463;-63
2021/12/12 08:26:05;;;;;;;23.55;15.63;;;;;;;;;;6255222;28;20166;-63
2021/12/12 08:29:07;;;;;;;22.35;15.48;;;;;;;;;;6262160;28;20053;-64
2021/12/12 08:32:14;;;;;;;25.70;16.63;;;;;;;;;;6249710;28;20141;-64
2021/12/12 08:35:17;;;;;;;21.00;14.77;;;;;;;;;;6254723;28;20063;-64
2021/12/12 08:38:19;;;;;;;18.15;13.57;;;;;;;;;;6262782;28;20134;-64
2021/12/12 08:41:21;;;;;;;19.00;13.40;;;;;;;;;;6263651;28;20114;-64
2021/12/12 08:44:24;;;;;;;15.57;11.55;;;;;;;;;;6276692;28;20072;-64
2021/12/12 08:47:27;;;;;;;17.65;11.63;;;;;;;;;;6251801;28;20081;-64
2021/12/12 08:50:31;;;;;;;14.18;9.38;;;;;;;;;;6252930;28;20968;-65
2021/12/12 08:53:32;;;;;;;12.63;9.97;;;;;;;;;;6265153;28;20079;-64
2021/12/12 08:56:43;;;;;;;13.10;10.07;;;;;;;;;;6255767;28;20558;-64
2021/12/12 08:59:46;;;;;;;12.07;8.57;;;;;;;;;;6261858;28;20135;-64
2021/12/12 09:02:49;;;;;;;11.10;7.90;;;;;;;;;;6248535;28;20477;-64
2021/12/12 09:05:51;;;;;;;10.93;7.77;;;;;;;;;;6248619;28;20124;-64
2021/12/12 09:08:55;;;;;;;10.73;7.45;;;;;;;;;;6264397;28;20048;-64
2021/12/12 09:12:00;;;;;;;;;;;;;;;;;;6253746;28;20033;-64
2021/12/12 09:15:09;;;;;;;9.05;6.50;;;;;;;;;;6258877;28;19974;-64
2021/12/12 09:18:15;;;;;;;8.05;6.25;;;;;;;;;;6251701;28;20073;-64
2021/12/12 09:21:25;;;;;;;7.45;6.03;;;;;;;;;;6252992;28;20045;-64
2021/12/12 09:24:43;;;;;;;7.28;6.25;;;;;;;;;;6262772;28;20500;-65
2021/12/12 09:27:47;;;;;;;8.80;5.80;;;;;;;;;;6251836;28;20045;-65
2021/12/12 09:30:50;;;;;;;6.90;5.57;;;;;;;;;;6249519;28;20049;-65
2021/12/12 09:33:56;;;;;;;8.50;6.10;;;;;;;;;;6257675;28;20037;-65
2021/12/12 09:37:00;;;;;;;7.93;5.30;;;;;;;;;;6249815;28;20140;-66
2021/12/12 09:40:10;;;;;;;7.07;5.38;;;;;;;;;;6261709;28;20101;-65
2021/12/12 09:43:20;;;;;;;7.90;6.15;;;;;;;;;;6257465;28;20063;-65
2021/12/12 09:46:40;;;;;;;8.63;6.80;;;;;;;;;;6247477;28;20995;-65
2021/12/12 09:53:23;;;;;;;9.52;6.30;;;;;;;;;;6256740;28;20044;-65
2021/12/12 09:56:30;;;;;;;6.50;5.68;;;;;;;;;;6250497;28;20489;-65
2021/12/12 09:59:50;;;;;;;8.45;6.00;;;;;;;;;;6261207;28;20175;-65
2021/12/12 10:03:02;;;;;;;9.05;6.13;;;;;;;;;;6244694;28;20052;-65
2021/12/12 10:06:10;;;;;;;7.68;5.85;;;;;;;;;;6249504;28;20595;-65
2021/12/12 10:09:16;;;;;;;7.20;5.30;;;;;;;;;;6258921;28;20049;-65
2021/12/12 10:12:20;;;;;;;9.00;6.07;;;;;;;;;;6251654;28;20198;-65
2021/12/12 10:15:22;;;;;;;;;;;;;;;;;;6254184;28;20163;-65
2021/12/12 10:18:31;;;;;;;5.82;5.22;;;;;;;;;;6254397;28;19928;-65
2021/12/12 10:21:38;;;;;;;8.07;6.18;;;;;;;;;;6257328;28;20127;-66
2021/12/12 10:24:43;;;;;;;10.68;5.88;;;;;;;;;;6267553;28;20060;-65
2021/12/12 10:27:47;;;;;;;7.13;6.28;;;;;;;;;;6256500;28;20041;-65
2021/12/12 10:30:56;;;;;;;8.45;6.20;;;;;;;;;;6251413;28;20123;-65
2021/12/12 10:34:00;;;;;;;7.20;5.80;;;;;;;;;;6259154;28;20132;-65
2021/12/12 10:37:09;;;;;;;7.88;5.90;;;;;;;;;;6250600;28;20056;-66
2021/12/12 10:40:14;;;;;;;8.90;6.15;;;;;;;;;;6255757;28;20041;-66
2021/12/12 10:43:22;;;;;;;7.90;5.80;;;;;;;;;;6259172;28;20139;-65
2021/12/12 10:46:33;;;;;;;8.38;6.35;;;;;;;;;;6247807;28;20126;-66
2021/12/12 10:49:43;;;;;;;9.93;6.25;;;;;;;;;;6256370;28;20114;-66
2021/12/12 10:52:53;;;;;;;8.82;6.30;;;;;;;;;;6251134;28;20144;-66
2021/12/12 10:56:00;;;;;;;15.63;7.00;;;;;;;;;;6255286;28;20048;-66
2021/12/12 10:59:06;;;;;;;7.72;6.68;;;;;;;;;;6266573;28;20049;-66
2021/12/12 11:02:11;;;;;;;8.93;7.10;;;;;;;;;;6248225;28;20037;-68
2021/12/12 11:05:15;;;;;;;7.40;6.63;;;;;;;;;;6256823;28;20090;-68
2021/12/12 11:08:25;;;;;;;9.20;7.00;;;;;;;;;;6267366;28;20045;-67
2021/12/12 11:11:31;;;;;;;9.57;6.80;;;;;;;;;;6254533;28;20057;-67
2021/12/12 11:14:39;;;;;;;7.95;7.10;;;;;;;;;;6245638;28;20107;-67
2021/12/12 11:17:45;;;;;;;9.52;7.35;;;;;;;;;;6248530;28;20045;-67
2021/12/12 11:20:50;;;;;;;11.07;7.20;;;;;;;;;;6250931;28;20048;-67
2021/12/12 11:23:57;;;;;;;11.45;7.90;;;;;;;;;;6265398;28;20048;-67
2021/12/12 11:27:03;;;;;;;10.73;7.30;;;;;;;;;;6233996;28;20507;-67
2021/12/12 11:30:09;;;;;;;9.13;7.63;;;;;;;;;;6264068;28;20068;-67
2021/12/12 11:33:15;;;;;;;9.55;7.45;;;;;;;;;;6255371;28;20191;-71
2021/12/12 11:36:22;;;;;;;9.35;7.53;;;;;;;;;;6254330;28;20172;-67
2021/12/12 11:39:29;;;;;;;8.85;7.68;;;;;;;;;;6263000;28;20098;-67
2021/12/12 11:42:36;;;;;;;11.80;7.20;;;;;;;;;;6255245;28;20185;-67
2021/12/12 11:45:41;;;;;;;9.63;7.50;;;;;;;;;;6252987;28;20056;-67
2021/12/12 11:48:50;;;;;;;9.55;7.03;;;;;;;;;;6257316;28;20048;-67
2021/12/12 11:51:56;;;;;;;9.10;6.93;;;;;;;;;;6251151;28;20052;-65
2021/12/12 11:55:01;;;;;;;11.88;7.38;;;;;;;;;;6263108;28;20049;-65
2021/12/12 11:58:08;;;;;;;8.45;6.85;;;;;;;;;;6255199;28;20090;-65
2021/12/12 12:01:14;;;;;;;9.20;6.20;;;;;;;;;;6249390;28;20223;-65
2021/12/12 12:04:24;;;;;;;7.70;6.25;;;;;;;;;;6260584;28;20053;-65
2021/12/12 12:07:41;;;;;;;10.27;6.75;;;;;;;;;;6251658;28;20760;-65
2021/12/12 12:10:53;;;;;;;8.75;6.30;;;;;;;;;;6253375;28;20060;-66
2021/12/12 12:13:56;;;;;;;10.50;6.32;;;;;;;;;;6241956;28;20037;-66
2021/12/12 12:17:06;;;;;;;8.35;5.97;;;;;;;;;;6248741;28;20109;-66
2021/12/12 12:20:13;;;;;;;8.95;6.53;;;;;;;;;;6255405;28;20057;-66
2021/12/12 12:23:32;;;;;;;7.95;6.30;;;;;;;;;;6263264;28;20071;-65
2021/12/12 12:26:55;;;;;;;14.88;9.73;;;;;;;;;;6258376;28;20069;-66
2021/12/12 12:30:32;;;;;;;14.23;11.23;;;;;;;;;;6269554;28;20397;-66
2021/12/12 12:34:16;;;;;;;16.70;11.88;;;;;;;;;;6260192;28;20052;-65
2021/12/12 12:38:06;;;;;;;18.70;12.00;;;;;;;;;;6255768;28;20037;-66
2021/12/12 12:42:11;;;;;;;16.48;12.05;;;;;;;;;;6211222;28;20618;-66
2021/12/12 12:45:50;;;;;;;22.02;13.68;;;;;;;;;;6255003;28;20124;-66
2021/12/12 12:49:38;;;;;;;16.17;14.48;;;;;;;;;;6233456;28;20063;-66
2021/12/12 12:53:05;;;;;;;20.05;16.02;;;;;;;;;;6235359;28;20041;-65
2021/12/12 12:56:25;;;;;;;20.80;15.77;;;;;;;;;;6245878;28;20044;-66
2021/12/12 12:59:45;;;;;;;18.48;16.20;;;;;;;;;;6268013;28;20057;-66
2021/12/12 13:03:25;;;;;;;21.40;16.92;;;;;;;;;;6249021;28;20068;-66
2021/12/12 13:06:57;;;;;;;22.63;16.52;;;;;;;;;;6148543;28;20053;-66
2021/12/12 13:10:01;;;;;;;23.40;17.65;;;;;;;;;;6259329;28;20049;-66
2021/12/12 13:13:05;;;;;;;21.00;17.13;;;;;;;;;;6256039;28;20127;-65
2021/12/12 13:16:12;;;;;;;25.63;18.02;;;;;;;;;;6247124;28;20052;-65
2021/12/12 13:19:21;;;;;;;23.77;18.30;;;;;;;;;;6257638;28;20743;-65
2021/12/12 13:22:26;;;;;;;22.90;19.17;;;;;;;;;;6258829;28;20048;-65
2021/12/12 13:25:31;;;;;;;22.63;19.23;;;;;;;;;;6236709;28;20124;-66
2021/12/12 13:28:47;;;;;;;24.67;19.88;;;;;;;;;;6267911;28;21978;-66
2021/12/12 13:31:54;;;;;;;22.08;18.83;;;;;;;;;;6254368;28;20041;-65
2021/12/12 13:35:04;;;;;;;21.60;18.02;;;;;;;;;;6259504;28;20685;-66
2021/12/12 13:38:11;;;;;;;21.25;17.75;;;;;;;;;;6249312;28;20443;-65
2021/12/12 13:41:18;;;;;;;24.35;17.90;;;;;;;;;;6249674;28;20037;-66
2021/12/12 13:44:36;;;;;;;25.17;20.08;;;;;;;;;;6261823;28;20113;-66
2021/12/12 13:47:47;;;;;;;22.85;19.20;;;;;;;;;;6246387;28;20061;-66
2021/12/12 13:50:56;;;;;;;22.90;18.55;;;;;;;;;;6248571;28;20796;-66
2021/12/12 13:54:09;;;;;;;25.92;19.13;;;;;;;;;;6261501;28;20045;-66
2021/12/12 13:57:16;;;;;;;25.50;18.65;;;;;;;;;;6250254;28;20049;-68
2021/12/12 14:00:24;;;;;;;24.38;19.73;;;;;;;;;;6257528;28;20056;-68
2021/12/12 14:03:34;;;;;;;26.58;20.58;;;;;;;;;;6254578;28;20061;-67
2021/12/12 14:06:37;;;;;;;41.67;28.83;;;;;;;;;;6252421;28;20148;-66
2021/12/12 14:09:39;;;;;;;80.03;48.23;;;;;;;;;;6263221;28;20129;-67
2021/12/12 14:12:41;;;;;;;36.72;25.52;;;;;;;;;;6244062;28;20201;-67
2021/12/12 14:15:48;;;;;;;28.13;22.02;;;;;;;;;;6246744;28;20049;-66
2021/12/12 14:18:54;;;;;;;23.75;19.42;;;;;;;;;;6258148;28;20122;-66
2021/12/12 14:21:56;;;;;;;25.80;18.90;;;;;;;;;;6255622;28;20049;-66
2021/12/12 14:25:00;;;;;;;21.65;18.52;;;;;;;;;;6262810;28;20040;-66
2021/12/12 14:28:02;;;;;;;25.63;18.25;;;;;;;;;;6254807;28;20049;-66
2021/12/12 14:31:06;;;;;;;21.25;18.20;;;;;;;;;;6256654;28;20056;-66
2021/12/12 14:34:12;;;;;;;21.85;18.67;;;;;;;;;;6264681;28;20751;-66
2021/12/12 14:37:23;;;;;;;25.20;18.52;;;;;;;;;;6259480;28;20037;-66
2021/12/12 14:40:27;;;;;;;21.95;18.42;;;;;;;;;;6256909;28;20069;-67
2021/12/12 14:43:33;;;;;;;24.75;19.65;;;;;;;;;;6265504;28;20106;-67
2021/12/12 14:46:38;;;;;;;24.90;19.83;;;;;;;;;;6250803;28;20057;-67
2021/12/12 14:49:43;;;;;;;27.35;19.27;;;;;;;;;;6263819;28;20033;-66
2021/12/12 14:52:47;;;;;;;20.92;18.00;;;;;;;;;;6256046;28;20045;-67
2021/12/12 14:55:50;;;;;;;24.63;19.55;;;;;;;;;;6264045;28;21241;-67
2021/12/12 14:58:56;;;;;;;24.55;19.17;;;;;;;;;;6267342;28;20127;-66
2021/12/12 15:02:00;;;;;;;23.58;19.15;;;;;;;;;;6252025;28;20048;-66
2021/12/12 15:05:08;;;;;;;23.23;18.08;;;;;;;;;;6261735;28;20555;-66
2021/12/12 15:08:12;;;;;;;25.05;18.15;;;;;;;;;;6260646;28;20045;-66
2021/12/12 15:11:15;;;;;;;21.85;18.30;;;;;;;;;;6259201;28;20049;-66
2021/12/12 15:14:19;;;;;;;23.42;17.85;;;;;;;;;;6266056;28;20125;-66
2021/12/12 15:17:22;;;;;;;;;;;;;;;;;;6247635;28;20128;-67
2021/12/12 15:20:29;;;;;;;21.65;17.05;;;;;;;;;;6251412;28;19925;-66
2021/12/12 15:23:34;;;;;;;25.02;16.52;;;;;;;;;;6245726;28;20175;-66
2021/12/12 15:26:40;;;;;;;23.85;17.73;;;;;;;;;;6258963;28;20072;-66
2021/12/12 15:29:42;;;;;;;21.02;16.58;;;;;;;;;;6268439;28;20048;-66
2021/12/12 15:32:45;;;;;;;21.73;15.82;;;;;;;;;;6247464;28;20057;-66
2021/12/12 15:35:49;;;;;;;22.25;16.42;;;;;;;;;;6252219;28;20041;-66
2021/12/12 15:38:51;;;;;;;23.10;16.33;;;;;;;;;;6263571;28;20434;-66
2021/12/12 15:41:55;;;;;;;21.50;14.93;;;;;;;;;;6256163;28;20057;-66
2021/12/12 15:45:00;;;;;;;19.17;14.77;;;;;;;;;;6264417;28;20534;-66
2021/12/12 15:48:03;;;;;;;19.02;14.05;;;;;;;;;;6250405;28;20045;-66
2021/12/12 15:51:08;;;;;;;19.45;15.38;;;;;;;;;;6258071;28;20135;-67
2021/12/12 15:54:13;;;;;;;21.23;16.80;;;;;;;;;;6269359;28;20041;-66
2021/12/12 15:57:17;;;;;;;21.98;15.73;;;;;;;;;;6261499;28;20186;-66
2021/12/12 16:00:25;;;;;;;20.50;14.68;;;;;;;;;;6256779;28;20140;-66
2021/12/12 16:03:29;;;;;;;19.80;14.10;;;;;;;;;;6252330;28;20132;-67
2021/12/12 16:06:35;;;;;;;18.47;14.77;;;;;;;;;;6253914;28;20082;-67
2021/12/12 16:09:39;;;;;;;20.25;14.60;;;;;;;;;;6262537;28;20037;-66
2021/12/12 16:12:43;;;;;;;19.02;14.70;;;;;;;;;;6252917;28;20072;-66
2021/12/12 16:15:46;;;;;;;23.27;15.32;;;;;;;;;;6249940;28;20052;-66
2021/12/12 16:18:56;;;;;;;19.65;14.35;;;;;;;;;;6251943;28;20132;-66
2021/12/12 16:22:03;;;;;;;19.27;14.60;;;;;;;;;;6250314;28;20175;-66
2021/12/12 16:25:09;;;;;;;17.33;14.35;;;;;;;;;;6262656;28;20140;-67
2021/12/12 16:28:14;;;;;;;20.98;15.25;;;;;;;;;;6258533;28;20446;-66
2021/12/12 16:31:17;;;;;;;23.73;15.05;;;;;;;;;;6248024;28;20135;-65
2021/12/12 16:34:21;;;;;;;23.92;14.75;;;;;;;;;;6260420;28;20041;-65
2021/12/12 16:37:31;;;;;;;19.25;14.70;;;;;;;;;;6250841;28;20178;-65
2021/12/12 16:40:36;;;;;;;22.85;15.18;;;;;;;;;;6247522;28;20036;-65
2021/12/12 16:43:46;;;;;;;21.17;15.13;;;;;;;;;;6265576;28;20041;-65
2021/12/12 16:46:49;;;;;;;19.23;13.00;;;;;;;;;;6247665;28;20055;-67
2021/12/12 16:49:53;;;;;;;15.25;12.20;;;;;;;;;;6260090;28;20053;-66
2021/12/12 16:52:56;;;;;;;16.60;12.38;;;;;;;;;;6249508;28;20488;-66
2021/12/12 16:56:00;;;;;;;13.85;11.43;;;;;;;;;;6253302;28;20124;-67
2021/12/12 16:59:02;;;;;;;16.80;10.52;;;;;;;;;;6262478;28;20053;-66
2021/12/12 17:02:06;;;;;;;16.38;11.15;;;;;;;;;;6239253;28;22016;-66
2021/12/12 17:05:10;;;;;;;16.27;11.13;;;;;;;;;;6253146;28;20053;-67
2021/12/12 17:08:17;;;;;;;17.27;11.02;;;;;;;;;;6257446;28;20044;-66
2021/12/12 17:11:22;;;;;;;12.45;9.30;;;;;;;;;;6251164;28;20057;-67
2021/12/12 17:14:26;;;;;;;14.80;10.18;;;;;;;;;;6263981;28;20126;-67
2021/12/12 17:17:32;;;;;;;15.05;10.93;;;;;;;;;;6244250;28;20055;-66
2021/12/12 17:20:38;;;;;;;17.77;10.40;;;;;;;;;;6249788;28;20091;-66
2021/12/12 17:23:46;;;;;;;16.55;9.77;;;;;;;;;;6259973;28;20044;-66
2021/12/12 17:26:50;;;;;;;16.20;10.93;;;;;;;;;;6249532;28;20060;-66
2021/12/12 17:29:57;;;;;;;16.60;11.00;;;;;;;;;;6260487;28;20049;-66
2021/12/12 17:33:04;;;;;;;14.23;10.15;;;;;;;;;;6244313;28;20049;-66
2021/12/12 17:36:09;;;;;;;15.93;10.57;;;;;;;;;;6250610;28;20044;-66
2021/12/12 17:39:14;;;;;;;13.85;10.85;;;;;;;;;;6262210;28;20140;-66
2021/12/12 17:42:47;;;;;;;15.57;10.02;;;;;;;;;;6253701;28;20041;-66
2021/12/12 17:46:37;;;;;;;20.73;11.38;;;;;;;;;;6247980;28;20544;-66
2021/12/12 17:50:27;;;;;;;19.23;10.68;;;;;;;;;;6259453;28;20084;-66
2021/12/12 17:53:31;;;;;;;18.25;10.77;;;;;;;;;;6251054;28;20517;-66
2021/12/12 17:56:40;;;;;;;17.38;10.57;;;;;;;;;;6250055;28;20060;-66
2021/12/12 17:59:50;;;;;;;18.45;11.70;;;;;;;;;;6261870;28;20854;-66
2021/12/12 18:02:55;;;;;;;19.15;10.95;;;;;;;;;;6244707;28;20152;-66
2021/12/12 18:05:58;;;;;;;17.38;10.65;;;;;;;;;;6246682;28;20053;-66
2021/12/12 18:09:06;;;;;;;18.98;11.07;;;;;;;;;;6267466;28;20139;-66
2021/12/12 18:12:13;;;;;;;18.85;11.30;;;;;;;;;;6253499;28;20045;-66
2021/12/12 18:15:16;;;;;;;17.23;11.02;;;;;;;;;;6256419;28;20064;-66
2021/12/12 18:18:54;;;;;;;15.30;10.70;;;;;;;;;;6255822;28;20063;-65
2021/12/12 18:21:56;;;;;;;21.10;10.98;;;;;;;;;;6252207;28;20045;-66
2021/12/12 18:24:59;;;;;;;18.75;11.65;;;;;;;;;;6265136;28;20136;-66
2021/12/12 18:28:06;;;;;;;23.00;11.48;;;;;;;;;;6253999;28;20094;-66
2021/12/12 18:31:11;;;;;;;19.65;12.43;;;;;;;;;;6248168;28;20098;-66